createdAt,value
2019-03-03T00:00:15.401Z,3.56
2019-03-03T00:01:23.594Z,3.53
2019-03-03T00:02:27.670Z,3.51
2019-03-03T00:03:31.690Z,3.51
2019-03-03T00:04:35.852Z,3.53
2019-03-03T00:05:39.957Z,3.46
2019-03-03T00:06:43.985Z,3.42
2019-03-03T00:07:47.993Z,3.40
2019-03-03T00:08:52.098Z,3.42
2019-03-03T00:09:56.257Z,3.44
2019-03-03T00:11:00.326Z,3.47
2019-03-03T00:12:04.386Z,3.42
2019-03-03T00:13:08.502Z,3.45
2019-03-03T00:14:12.633Z,3.47
2019-03-03T00:15:16.716Z,3.45
2019-03-03T00:16:20.855Z,3.46
2019-03-03T00:17:24.961Z,3.41
2019-03-03T00:18:29.002Z,3.41
2019-03-03T00:19:33.041Z,3.38
2019-03-03T00:20:37.145Z,3.43
2019-03-03T00:21:41.390Z,3.49
2019-03-03T00:22:45.529Z,3.47
2019-03-03T00:23:49.587Z,3.52
2019-03-03T00:24:53.752Z,3.49
2019-03-03T00:25:57.930Z,3.44
2019-03-03T00:27:01.985Z,3.43
2019-03-03T00:28:06.102Z,3.49
2019-03-03T00:29:10.162Z,3.53
2019-03-03T00:30:14.354Z,3.54
2019-03-03T00:31:20.700Z,3.57
2019-03-03T00:32:24.772Z,3.57
2019-03-03T00:33:28.864Z,3.62
2019-03-03T00:34:32.898Z,3.61
2019-03-03T00:35:37.008Z,3.60
2019-03-03T00:36:46.347Z,3.59
2019-03-03T00:37:54.481Z,3.58
2019-03-03T00:39:13.473Z,3.57
2019-03-03T00:41:22.145Z,3.50
2019-03-03T00:42:36.158Z,3.54
2019-03-03T00:44:45.975Z,3.57
2019-03-03T00:45:55.650Z,3.57
2019-03-03T00:47:04.972Z,3.55
2019-03-03T00:48:13.424Z,3.55
2019-03-03T00:49:29.383Z,3.56
2019-03-03T00:50:41.479Z,3.58
2019-03-03T00:51:50.816Z,3.59
2019-03-03T00:53:05.999Z,3.61
2019-03-03T00:55:19.196Z,3.70
2019-03-03T00:56:27.586Z,3.75
2019-03-03T00:57:36.796Z,3.76
2019-03-03T00:58:45.356Z,3.79
2019-03-03T00:59:54.727Z,3.75
2019-03-03T01:01:04.162Z,3.79
2019-03-03T01:02:14.461Z,3.81
2019-03-03T01:03:27.129Z,3.84
2019-03-03T01:06:40.296Z,3.84
2019-03-03T01:08:48.891Z,3.79
2019-03-03T01:09:58.343Z,3.83
2019-03-03T01:11:08.689Z,3.86
2019-03-03T01:12:20.020Z,3.85
2019-03-03T01:13:34.059Z,3.85
2019-03-03T01:14:58.301Z,3.86
2019-03-03T01:16:09.545Z,3.88
2019-03-03T01:17:20.737Z,3.86
2019-03-03T01:18:31.733Z,3.89
2019-03-03T01:19:50.960Z,3.87
2019-03-03T01:21:02.436Z,3.90
2019-03-03T01:22:15.431Z,3.91
2019-03-03T01:23:23.678Z,3.92
2019-03-03T01:24:33.021Z,3.95
2019-03-03T01:25:37.387Z,3.97
2019-03-03T01:26:41.734Z,3.90
2019-03-03T01:27:46.155Z,3.92
2019-03-03T01:28:50.184Z,3.97
2019-03-03T01:29:54.316Z,3.97
2019-03-03T01:30:58.433Z,3.98
2019-03-03T01:32:02.567Z,3.98
2019-03-03T01:33:06.684Z,3.97
2019-03-03T01:34:10.840Z,3.94
2019-03-03T01:35:14.986Z,3.93
2019-03-03T01:36:19.079Z,3.95
2019-03-03T01:37:23.174Z,3.98
2019-03-03T01:38:27.240Z,4.01
2019-03-03T01:39:31.345Z,4.01
2019-03-03T01:40:35.404Z,4.02
2019-03-03T01:41:42.300Z,4.01
2019-03-03T01:42:46.629Z,4.03
2019-03-03T01:43:50.721Z,3.99
2019-03-03T01:44:54.747Z,3.97
2019-03-03T01:45:58.791Z,3.98
2019-03-03T01:47:02.780Z,3.99
2019-03-03T01:48:06.798Z,3.99
2019-03-03T01:49:10.900Z,3.98
2019-03-03T01:50:15.019Z,4.00
2019-03-03T01:51:19.132Z,3.98
2019-03-03T01:52:23.138Z,4.01
2019-03-03T01:53:27.177Z,4.01
2019-03-03T01:54:31.310Z,4.01
2019-03-03T01:55:35.294Z,4.01
2019-03-03T01:56:39.363Z,4.03
2019-03-03T01:57:43.430Z,4.03
2019-03-03T01:58:47.522Z,4.04
2019-03-03T01:59:51.581Z,4.01
2019-03-03T02:00:55.566Z,3.95
2019-03-03T02:01:59.598Z,4.01
2019-03-03T02:03:03.689Z,3.94
2019-03-03T02:04:07.857Z,3.95
2019-03-03T02:05:11.986Z,3.95
2019-03-03T02:06:16.112Z,3.95
2019-03-03T02:07:20.222Z,3.96
2019-03-03T02:08:24.261Z,3.94
2019-03-03T02:09:28.333Z,3.95
2019-03-03T02:10:32.477Z,3.97
2019-03-03T02:11:36.559Z,3.95
2019-03-03T02:12:40.600Z,3.93
2019-03-03T02:13:44.689Z,3.93
2019-03-03T02:14:48.887Z,3.92
2019-03-03T02:15:52.904Z,3.93
2019-03-03T02:16:57.105Z,3.95
2019-03-03T02:18:01.107Z,3.91
2019-03-03T02:19:05.332Z,3.93
2019-03-03T02:20:09.999Z,3.92
2019-03-03T02:21:14.378Z,3.92
2019-03-03T02:22:18.695Z,3.93
2019-03-03T02:23:22.905Z,3.94
2019-03-03T02:24:27.106Z,3.94
2019-03-03T02:25:31.477Z,3.91
2019-03-03T02:26:35.851Z,3.91
2019-03-03T02:27:40.267Z,3.91
2019-03-03T02:28:44.382Z,3.90
2019-03-03T02:29:48.753Z,3.85
2019-03-03T02:30:53.150Z,3.88
2019-03-03T02:31:57.702Z,3.89
2019-03-03T02:33:01.979Z,3.90
2019-03-03T02:34:06.311Z,3.92
2019-03-03T02:35:10.885Z,3.92
2019-03-03T02:36:15.227Z,3.91
2019-03-03T02:37:19.633Z,3.85
2019-03-03T02:38:23.957Z,3.84
2019-03-03T02:39:28.238Z,3.90
2019-03-03T02:40:32.580Z,3.88
2019-03-03T02:41:36.626Z,3.91
2019-03-03T02:42:40.784Z,3.92
2019-03-03T02:43:44.864Z,3.90
2019-03-03T02:44:49.151Z,3.93
2019-03-03T02:45:53.161Z,3.90
2019-03-03T02:46:57.189Z,3.92
2019-03-03T02:48:01.297Z,3.93
2019-03-03T02:49:05.401Z,3.92
2019-03-03T02:50:10.766Z,3.93
2019-03-03T02:51:15.164Z,3.92
2019-03-03T02:52:19.556Z,3.92
2019-03-03T02:53:24.033Z,3.92
2019-03-03T02:54:28.401Z,3.92
2019-03-03T02:55:32.693Z,3.93
2019-03-03T02:56:37.068Z,3.93
2019-03-03T02:57:41.371Z,3.92
2019-03-03T02:58:45.858Z,3.92
2019-03-03T02:59:50.195Z,3.91
2019-03-03T03:01:02.322Z,3.91
2019-03-03T03:02:11.067Z,3.91
2019-03-03T03:03:15.437Z,3.90
2019-03-03T03:04:19.828Z,3.85
2019-03-03T03:06:33.378Z,3.87
2019-03-03T03:07:41.844Z,3.89
2019-03-03T03:09:21.036Z,3.87
2019-03-03T03:10:30.347Z,3.87
2019-03-03T03:11:49.779Z,3.88
2019-03-03T03:13:57.623Z,3.88
2019-03-03T03:15:07.048Z,3.87
2019-03-03T03:16:22.285Z,3.87
2019-03-03T03:18:30.314Z,3.86
2019-03-03T03:19:40.590Z,3.87
2019-03-03T03:20:56.816Z,3.85
2019-03-03T03:22:13.922Z,3.85
2019-03-03T03:23:28.287Z,3.85
2019-03-03T03:24:37.903Z,3.85
2019-03-03T03:25:48.160Z,3.80
2019-03-03T03:26:57.406Z,3.82
2019-03-03T03:28:14.619Z,3.74
2019-03-03T03:29:32.795Z,3.81
2019-03-03T03:31:40.945Z,3.80
2019-03-03T03:32:49.355Z,3.80
2019-03-03T03:33:58.656Z,3.79
2019-03-03T03:35:08.315Z,3.78
2019-03-03T03:36:21.641Z,3.79
2019-03-03T03:37:37.874Z,3.76
2019-03-03T03:38:46.227Z,3.80
2019-03-03T03:40:00.577Z,3.79
2019-03-03T03:41:11.954Z,3.79
2019-03-03T03:42:23.324Z,3.80
2019-03-03T03:45:39.114Z,3.80
2019-03-03T03:46:50.218Z,3.78
2019-03-03T03:48:57.260Z,3.79
2019-03-03T03:50:05.701Z,3.79
2019-03-03T03:53:19.558Z,3.78
2019-03-03T03:54:34.984Z,3.78
2019-03-03T03:55:46.524Z,3.78
2019-03-03T03:56:55.889Z,3.78
2019-03-03T03:58:19.227Z,3.76
2019-03-03T03:59:34.599Z,3.78
2019-03-03T04:01:46.812Z,3.78
2019-03-03T04:02:56.434Z,3.78
2019-03-03T04:04:09.545Z,3.77
2019-03-03T04:06:17.061Z,3.76
2019-03-03T04:07:31.399Z,3.76
2019-03-03T04:08:39.803Z,3.77
2019-03-03T04:09:51.176Z,3.76
2019-03-03T04:11:20.617Z,3.76
2019-03-03T04:12:31.975Z,3.75
2019-03-03T04:13:41.245Z,3.76
2019-03-03T04:15:08.725Z,3.75
2019-03-03T04:16:51.574Z,3.74
2019-03-03T04:18:03.666Z,3.74
2019-03-03T04:19:27.233Z,3.70
2019-03-03T04:20:42.361Z,3.73
2019-03-03T04:21:50.750Z,3.72
2019-03-03T04:23:02.917Z,3.71
2019-03-03T04:24:14.308Z,3.71
2019-03-03T04:25:22.658Z,3.71
2019-03-03T04:26:30.917Z,3.69
2019-03-03T04:28:39.175Z,3.68
2019-03-03T04:29:47.549Z,3.67
2019-03-03T04:31:27.272Z,3.65
2019-03-03T04:32:41.721Z,3.63
2019-03-03T04:33:52.887Z,3.62
2019-03-03T04:35:11.017Z,3.60
2019-03-03T04:36:21.419Z,3.59
2019-03-03T04:37:30.781Z,3.59
2019-03-03T04:38:39.180Z,3.57
2019-03-03T04:39:48.632Z,3.55
2019-03-03T04:41:02.614Z,3.55
2019-03-03T04:42:11.833Z,3.55
2019-03-03T04:43:21.299Z,3.54
2019-03-03T04:44:30.519Z,3.54
2019-03-03T04:45:39.253Z,3.54
2019-03-03T04:47:22.006Z,3.53
2019-03-03T04:48:32.227Z,3.53
2019-03-03T04:49:41.434Z,3.53
2019-03-03T04:50:50.995Z,3.53
2019-03-03T04:54:03.272Z,3.52
2019-03-03T04:55:12.702Z,3.44
2019-03-03T04:56:55.718Z,3.52
2019-03-03T04:58:06.991Z,3.51
2019-03-03T05:01:19.770Z,3.51
2019-03-03T05:02:29.233Z,3.51
2019-03-03T05:03:38.633Z,3.47
2019-03-03T05:04:51.961Z,3.51
2019-03-03T05:06:01.288Z,3.49
2019-03-03T05:07:13.553Z,3.49
2019-03-03T05:08:25.392Z,3.50
2019-03-03T05:09:34.923Z,3.49
2019-03-03T05:10:44.217Z,3.51
2019-03-03T05:12:06.355Z,3.51
2019-03-03T05:13:19.508Z,3.50
2019-03-03T05:14:27.892Z,3.51
2019-03-03T05:16:42.125Z,3.51
2019-03-03T05:17:50.683Z,3.52
2019-03-03T05:18:58.585Z,3.52
2019-03-03T05:20:03.188Z,3.52
2019-03-03T05:21:07.571Z,3.53
2019-03-03T05:22:11.972Z,3.53
2019-03-03T05:23:16.340Z,3.53
2019-03-03T05:24:20.597Z,3.53
2019-03-03T05:25:24.950Z,3.53
2019-03-03T05:26:29.385Z,3.54
2019-03-03T05:27:33.621Z,3.55
2019-03-03T05:28:37.956Z,3.55
2019-03-03T05:29:42.321Z,3.55
2019-03-03T05:30:46.689Z,3.56
2019-03-03T05:31:51.026Z,3.51
2019-03-03T05:33:01.925Z,3.57
2019-03-03T05:34:06.301Z,3.56
2019-03-03T05:35:10.754Z,3.56
2019-03-03T05:36:15.216Z,3.57
2019-03-03T05:37:19.531Z,3.59
2019-03-03T05:38:23.870Z,3.59
2019-03-03T05:39:28.245Z,3.61
2019-03-03T05:40:32.544Z,3.60
2019-03-03T05:41:36.855Z,3.58
2019-03-03T05:42:41.143Z,3.57
2019-03-03T05:43:45.441Z,3.62
2019-03-03T05:44:49.772Z,3.62
2019-03-03T05:45:54.094Z,3.63
2019-03-03T05:46:58.705Z,3.63
2019-03-03T05:48:03.013Z,3.64
2019-03-03T05:49:07.394Z,3.64
2019-03-03T05:50:11.767Z,3.64
2019-03-03T05:51:16.222Z,3.65
2019-03-03T05:52:20.622Z,3.64
2019-03-03T05:53:24.968Z,3.64
2019-03-03T05:54:29.251Z,3.65
2019-03-03T05:55:33.575Z,3.65
2019-03-03T05:56:37.964Z,3.66
2019-03-03T05:57:42.338Z,3.67
2019-03-03T05:58:47.074Z,3.66
2019-03-03T05:59:51.678Z,3.65
2019-03-03T06:00:55.901Z,3.64
2019-03-03T06:02:00.227Z,3.64
2019-03-03T06:03:04.603Z,3.64
2019-03-03T06:04:08.964Z,3.63
2019-03-03T06:05:13.143Z,3.63
2019-03-03T06:06:17.585Z,3.63
2019-03-03T06:07:21.790Z,3.63
2019-03-03T06:08:25.918Z,3.63
2019-03-03T06:09:30.305Z,3.62
2019-03-03T06:10:34.651Z,3.62
2019-03-03T06:11:39.079Z,3.63
2019-03-03T06:12:43.349Z,3.64
2019-03-03T06:13:47.653Z,3.63
2019-03-03T06:14:51.941Z,3.62
2019-03-03T06:15:56.278Z,3.61
2019-03-03T06:17:00.673Z,3.62
2019-03-03T06:18:04.960Z,3.61
2019-03-03T06:19:09.382Z,3.61
2019-03-03T06:20:13.663Z,3.62
2019-03-03T06:21:18.051Z,3.62
2019-03-03T06:22:22.386Z,3.62
2019-03-03T06:23:26.766Z,3.62
2019-03-03T06:24:31.025Z,3.62
2019-03-03T06:25:35.321Z,3.62
2019-03-03T06:26:39.688Z,3.63
2019-03-03T06:27:43.898Z,3.62
2019-03-03T06:28:48.250Z,3.63
2019-03-03T06:29:52.624Z,3.62
2019-03-03T06:30:57.063Z,3.63
2019-03-03T06:32:01.454Z,3.62
2019-03-03T06:33:05.760Z,3.63
2019-03-03T06:34:09.988Z,3.62
2019-03-03T06:35:14.329Z,3.62
2019-03-03T06:36:18.623Z,3.60
2019-03-03T06:37:23.234Z,3.60
2019-03-03T06:38:27.465Z,3.59
2019-03-03T06:39:31.949Z,3.60
2019-03-03T06:40:36.280Z,3.60
2019-03-03T06:41:40.701Z,3.60
2019-03-03T06:42:45.102Z,3.60
2019-03-03T06:43:49.440Z,3.56
2019-03-03T06:44:53.706Z,3.61
2019-03-03T06:45:58.024Z,3.63
2019-03-03T06:47:02.251Z,3.62
2019-03-03T06:48:06.699Z,3.63
2019-03-03T06:49:11.068Z,3.62
2019-03-03T06:50:15.443Z,3.63
2019-03-03T06:51:19.721Z,3.64
2019-03-03T06:52:24.137Z,3.66
2019-03-03T06:53:28.582Z,3.65
2019-03-03T06:54:32.900Z,3.65
2019-03-03T06:55:37.282Z,3.64
2019-03-03T06:56:41.677Z,3.58
2019-03-03T06:57:46.009Z,3.63
2019-03-03T06:58:50.400Z,3.65
2019-03-03T06:59:54.698Z,3.64
2019-03-03T07:00:59.051Z,3.65
2019-03-03T07:02:03.385Z,3.65
2019-03-03T07:03:07.866Z,3.61
2019-03-03T07:04:12.198Z,3.65
2019-03-03T07:05:16.597Z,3.67
2019-03-03T07:06:20.981Z,3.67
2019-03-03T07:07:25.231Z,3.67
2019-03-03T07:08:29.712Z,3.68
2019-03-03T07:09:34.115Z,3.70
2019-03-03T07:10:38.477Z,3.71
2019-03-03T07:11:42.952Z,3.72
2019-03-03T07:12:47.433Z,3.73
2019-03-03T07:13:51.751Z,3.73
2019-03-03T07:14:56.246Z,3.76
2019-03-03T07:16:00.444Z,3.76
2019-03-03T07:17:04.814Z,3.78
2019-03-03T07:18:09.195Z,3.79
2019-03-03T07:19:13.562Z,3.80
2019-03-03T07:20:17.990Z,3.81
2019-03-03T07:21:22.434Z,3.83
2019-03-03T07:22:26.577Z,3.83
2019-03-03T07:23:31.042Z,3.85
2019-03-03T07:24:38.440Z,3.86
2019-03-03T07:25:42.761Z,3.87
2019-03-03T07:26:46.890Z,3.89
2019-03-03T07:27:51.390Z,3.88
2019-03-03T07:28:55.741Z,3.87
2019-03-03T07:30:00.105Z,3.87
2019-03-03T07:31:04.656Z,3.88
2019-03-03T07:32:09.210Z,3.86
2019-03-03T07:33:16.069Z,3.85
2019-03-03T07:34:20.376Z,3.86
2019-03-03T07:35:24.843Z,3.84
2019-03-03T07:36:29.178Z,3.83
2019-03-03T07:37:33.559Z,3.84
2019-03-03T07:38:37.844Z,3.76
2019-03-03T07:39:42.182Z,3.81
2019-03-03T07:40:46.607Z,3.81
2019-03-03T07:41:50.857Z,3.74
2019-03-03T07:42:55.178Z,3.72
2019-03-03T07:43:59.756Z,3.72
2019-03-03T07:45:04.656Z,3.72
2019-03-03T07:46:08.917Z,3.71
2019-03-03T07:47:13.344Z,3.72
2019-03-03T07:48:17.724Z,3.72
2019-03-03T07:49:22.041Z,3.74
2019-03-03T07:50:26.430Z,3.74
2019-03-03T07:51:30.832Z,3.73
2019-03-03T07:52:35.283Z,3.73
2019-03-03T07:53:39.702Z,3.72
2019-03-03T07:54:44.014Z,3.72
2019-03-03T07:55:48.446Z,3.74
2019-03-03T07:56:52.951Z,3.76
2019-03-03T07:57:57.433Z,3.78
2019-03-03T07:59:02.042Z,3.81
2019-03-03T08:00:07.579Z,3.85
2019-03-03T08:01:11.933Z,3.82
2019-03-03T08:02:16.331Z,3.86
2019-03-03T08:03:20.927Z,3.89
2019-03-03T08:04:25.302Z,3.89
2019-03-03T08:05:29.754Z,3.93
2019-03-03T08:06:33.915Z,3.98
2019-03-03T08:07:38.157Z,4.04
2019-03-03T08:08:42.383Z,4.08
2019-03-03T08:09:46.678Z,4.09
2019-03-03T08:10:50.882Z,4.14
2019-03-03T08:11:55.019Z,4.17
2019-03-03T08:13:08.743Z,4.17
2019-03-03T08:14:03.579Z,4.21
2019-03-03T08:15:07.881Z,4.23
2019-03-03T08:16:12.425Z,4.29
2019-03-03T08:17:16.540Z,4.32
2019-03-03T08:18:20.704Z,4.37
2019-03-03T08:19:24.894Z,4.40
2019-03-03T08:20:29.106Z,4.42
2019-03-03T08:21:33.655Z,4.44
2019-03-03T08:22:38.187Z,4.48
2019-03-03T08:23:42.917Z,4.49
2019-03-03T08:24:47.042Z,4.39
2019-03-03T08:25:51.407Z,4.42
2019-03-03T08:26:55.951Z,4.45
2019-03-03T08:28:08.101Z,4.50
2019-03-03T08:29:12.642Z,4.45
2019-03-03T08:30:18.466Z,4.42
2019-03-03T08:31:26.771Z,4.42
2019-03-03T08:32:31.494Z,4.45
2019-03-03T08:33:35.971Z,4.47
2019-03-03T08:34:46.990Z,4.49
2019-03-03T08:35:51.275Z,4.48
2019-03-03T08:36:56.319Z,4.46
2019-03-03T08:38:00.384Z,4.44
2019-03-03T08:39:05.466Z,4.47
2019-03-03T08:40:09.919Z,4.44
2019-03-03T08:41:14.346Z,4.48
2019-03-03T08:42:23.807Z,4.47
2019-03-03T08:43:37.834Z,4.46
2019-03-03T08:45:45.782Z,4.47
2019-03-03T08:46:55.245Z,4.47
2019-03-03T08:48:03.873Z,4.51
2019-03-03T08:49:14.075Z,4.53
2019-03-03T08:50:22.322Z,4.59
2019-03-03T08:51:37.586Z,4.63
2019-03-03T08:52:45.735Z,4.65
2019-03-03T08:54:10.930Z,4.68
2019-03-03T08:56:19.121Z,4.66
2019-03-03T08:57:28.491Z,4.68
2019-03-03T08:58:36.820Z,4.70
2019-03-03T09:00:03.958Z,4.76
2019-03-03T09:01:13.170Z,4.79
2019-03-03T09:03:28.011Z,4.80
2019-03-03T09:05:40.316Z,4.85
2019-03-03T09:06:48.399Z,4.89
2019-03-03T09:08:55.380Z,4.89
2019-03-03T09:10:35.295Z,4.86
2019-03-03T09:11:44.541Z,4.88
2019-03-03T09:12:57.596Z,4.86
2019-03-03T09:15:14.055Z,4.89
2019-03-03T09:16:29.477Z,4.89
2019-03-03T09:18:12.308Z,4.85
2019-03-03T09:20:21.161Z,4.91
2019-03-03T09:21:30.451Z,4.74
2019-03-03T09:23:14.020Z,4.83
2019-03-03T09:24:39.161Z,4.88
2019-03-03T09:25:50.210Z,4.89
2019-03-03T09:27:13.727Z,4.90
2019-03-03T09:28:32.536Z,4.87
2019-03-03T09:29:42.555Z,4.86
2019-03-03T09:31:23.996Z,4.84
2019-03-03T09:33:06.645Z,4.71
2019-03-03T09:35:17.263Z,4.70
2019-03-03T09:37:28.265Z,4.63
2019-03-03T09:38:36.741Z,4.63
2019-03-03T09:40:43.545Z,4.62
2019-03-03T09:41:56.468Z,4.61
2019-03-03T09:43:22.715Z,4.58
2019-03-03T09:44:33.925Z,4.48
2019-03-03T09:45:46.306Z,4.51
2019-03-03T09:47:06.490Z,4.51
2019-03-03T09:50:19.695Z,4.35
2019-03-03T09:52:27.694Z,4.41
2019-03-03T09:53:42.466Z,4.44
2019-03-03T09:54:51.930Z,4.39
2019-03-03T09:56:59.015Z,4.43
2019-03-03T09:58:23.243Z,4.37
2019-03-03T10:00:39.737Z,4.37
2019-03-03T10:01:54.055Z,4.41
2019-03-03T10:03:19.829Z,4.50
2019-03-03T10:04:29.623Z,4.58
2019-03-03T10:07:44.750Z,4.61
2019-03-03T10:09:58.093Z,4.62
2019-03-03T10:11:22.348Z,4.72
2019-03-03T10:12:31.593Z,4.80
2019-03-03T10:13:41.063Z,4.85
2019-03-03T10:14:50.742Z,4.93
2019-03-03T10:16:03.010Z,4.95
2019-03-03T10:17:14.558Z,4.98
2019-03-03T10:18:32.686Z,5.00
2019-03-03T10:21:47.794Z,4.93
2019-03-03T10:23:01.972Z,4.87
2019-03-03T10:24:13.251Z,4.89
2019-03-03T10:25:22.295Z,4.73
2019-03-03T10:26:35.143Z,4.74
2019-03-03T10:27:59.194Z,4.77
2019-03-03T10:29:12.247Z,4.79
2019-03-03T10:32:25.434Z,4.79
2019-03-03T10:33:40.703Z,4.79
2019-03-03T10:34:56.998Z,4.83
2019-03-03T10:36:08.154Z,4.68
2019-03-03T10:38:18.238Z,4.71
2019-03-03T10:40:31.261Z,4.65
2019-03-03T10:42:43.347Z,4.72
2019-03-03T10:43:51.631Z,4.74
2019-03-03T10:45:02.944Z,4.76
2019-03-03T10:46:17.510Z,4.75
2019-03-03T10:47:57.077Z,4.52
2019-03-03T10:49:06.406Z,4.58
2019-03-03T10:50:21.734Z,4.57
2019-03-03T10:51:37.085Z,4.62
2019-03-03T10:52:53.398Z,4.61
2019-03-03T10:54:33.244Z,4.63
2019-03-03T10:56:45.310Z,4.66
2019-03-03T10:58:00.574Z,4.61
2019-03-03T10:59:11.612Z,4.56
2019-03-03T11:00:23.148Z,4.59
2019-03-03T11:01:34.321Z,4.63
2019-03-03T11:02:43.446Z,4.66
2019-03-03T11:03:56.648Z,4.67
2019-03-03T11:06:08.336Z,4.72
2019-03-03T11:07:17.642Z,4.65
2019-03-03T11:08:27.548Z,4.55
2019-03-03T11:09:50.999Z,4.63
2019-03-03T11:11:14.335Z,4.73
2019-03-03T11:12:23.703Z,4.69
2019-03-03T11:14:05.174Z,4.77
2019-03-03T11:15:48.242Z,4.74
2019-03-03T11:16:59.556Z,4.73
2019-03-03T11:18:09.864Z,4.77
2019-03-03T11:19:54.512Z,4.79
2019-03-03T11:21:08.696Z,4.76
2019-03-03T11:22:20.907Z,4.87
2019-03-03T11:23:29.120Z,4.79
2019-03-03T11:24:41.234Z,4.87
2019-03-03T11:27:55.172Z,4.87
2019-03-03T11:29:04.474Z,4.60
2019-03-03T11:30:20.043Z,4.69
2019-03-03T11:31:29.277Z,4.68
2019-03-03T11:32:43.640Z,4.62
2019-03-03T11:33:53.191Z,4.61
2019-03-03T11:35:05.738Z,4.63
2019-03-03T11:36:18.688Z,4.66
2019-03-03T11:37:30.647Z,4.70
2019-03-03T11:38:46.933Z,4.77
2019-03-03T11:39:56.945Z,4.68
2019-03-03T11:41:05.340Z,4.75
2019-03-03T11:42:15.764Z,4.79
2019-03-03T11:43:25.050Z,4.84
2019-03-03T11:45:34.125Z,4.84
2019-03-03T11:46:43.134Z,4.83
2019-03-03T11:48:06.232Z,4.85
2019-03-03T11:49:14.346Z,4.87
2019-03-03T11:50:55.870Z,4.83
2019-03-03T11:53:03.742Z,4.84
2019-03-03T11:54:15.253Z,4.89
2019-03-03T11:55:38.654Z,4.93
2019-03-03T11:56:48.711Z,4.96
2019-03-03T11:58:04.752Z,4.88
2019-03-03T11:59:18.766Z,4.89
2019-03-03T12:00:36.173Z,4.83
2019-03-03T12:01:48.139Z,4.77
2019-03-03T12:03:04.225Z,4.74
2019-03-03T12:04:13.485Z,4.77
2019-03-03T12:05:26.472Z,4.82
2019-03-03T12:06:36.690Z,4.80
2019-03-03T12:07:44.818Z,4.80
2019-03-03T12:08:53.891Z,4.68
2019-03-03T12:10:11.031Z,4.63
2019-03-03T12:11:21.144Z,4.65
2019-03-03T12:13:29.146Z,4.66
2019-03-03T12:15:10.381Z,4.76
2019-03-03T12:16:19.568Z,4.76
2019-03-03T12:18:27.298Z,4.61
2019-03-03T12:19:42.303Z,4.59
2019-03-03T12:20:58.187Z,4.69
2019-03-03T12:24:12.265Z,4.65
2019-03-03T12:25:25.520Z,4.51
2019-03-03T12:26:36.614Z,4.50
2019-03-03T12:27:46.569Z,4.58
2019-03-03T12:29:03.639Z,4.54
2019-03-03T12:30:16.840Z,4.59
2019-03-03T12:33:28.388Z,4.51
2019-03-03T12:34:37.910Z,4.45
2019-03-03T12:35:47.246Z,4.52
2019-03-03T12:37:12.577Z,4.58
2019-03-03T12:38:33.739Z,4.61
2019-03-03T12:41:45.818Z,4.67
2019-03-03T12:42:59.098Z,4.78
2019-03-03T12:45:07.947Z,4.82
2019-03-03T12:46:21.145Z,4.82
2019-03-03T12:47:30.341Z,4.84
2019-03-03T12:48:46.431Z,4.91
2019-03-03T12:49:56.053Z,4.96
2019-03-03T12:53:09.376Z,4.97
2019-03-03T12:54:20.426Z,5.08
2019-03-03T12:55:29.581Z,5.15
2019-03-03T12:56:37.748Z,5.18
2019-03-03T12:58:48.535Z,5.19
2019-03-03T13:00:11.797Z,5.06
2019-03-03T13:01:23.906Z,4.99
2019-03-03T13:02:35.877Z,4.86
2019-03-03T13:03:59.067Z,4.88
2019-03-03T13:05:26.214Z,4.78
2019-03-03T13:06:38.385Z,4.73
2019-03-03T13:07:58.697Z,4.60
2019-03-03T13:09:10.801Z,4.52
2019-03-03T13:10:21.996Z,4.53
2019-03-03T13:13:34.557Z,4.51
2019-03-03T13:15:12.181Z,4.45
2019-03-03T13:16:51.697Z,4.17
2019-03-03T13:18:01.644Z,3.98
2019-03-03T13:19:10.798Z,3.88
2019-03-03T13:20:26.532Z,3.85
2019-03-03T13:21:36.495Z,3.78
2019-03-03T13:23:22.027Z,3.65
2019-03-03T13:24:31.171Z,3.62
2019-03-03T13:26:12.180Z,3.64
2019-03-03T13:27:30.482Z,3.66
2019-03-03T13:28:39.725Z,3.62
2019-03-03T13:29:48.817Z,3.58
2019-03-03T13:31:03.927Z,3.65
2019-03-03T13:32:27.395Z,3.75
2019-03-03T13:34:36.638Z,3.82
2019-03-03T13:36:46.862Z,3.93
2019-03-03T13:37:56.070Z,3.93
2019-03-03T13:39:11.559Z,3.97
2019-03-03T13:41:20.241Z,3.93
2019-03-03T13:42:37.492Z,3.80
2019-03-03T13:43:42.273Z,3.67
2019-03-03T13:44:46.742Z,3.70
2019-03-03T13:45:51.111Z,3.64
2019-03-03T13:46:55.522Z,3.72
2019-03-03T13:48:00.059Z,3.73
2019-03-03T13:49:04.365Z,3.76
2019-03-03T13:50:11.234Z,3.62
2019-03-03T13:51:15.789Z,3.53
2019-03-03T13:52:20.105Z,3.53
2019-03-03T13:53:24.542Z,3.52
2019-03-03T13:54:28.916Z,3.48
2019-03-03T13:55:33.495Z,3.49
2019-03-03T13:56:37.903Z,3.52
2019-03-03T13:57:42.210Z,3.49
2019-03-03T13:58:46.541Z,3.45
2019-03-03T13:59:50.885Z,3.34
2019-03-03T14:00:55.670Z,3.34
2019-03-03T14:02:00.327Z,3.35
2019-03-03T14:03:04.873Z,3.36
2019-03-03T14:04:09.510Z,3.36
2019-03-03T14:05:14.131Z,3.34
2019-03-03T14:06:18.528Z,3.38
2019-03-03T14:07:23.011Z,3.37
2019-03-03T14:08:27.441Z,3.46
2019-03-03T14:09:31.805Z,3.47
2019-03-03T14:10:36.199Z,3.48
2019-03-03T14:11:40.631Z,3.42
2019-03-03T14:12:45.142Z,3.48
2019-03-03T14:13:49.518Z,3.56
2019-03-03T14:14:53.883Z,3.60
2019-03-03T14:15:58.205Z,3.47
2019-03-03T14:17:02.696Z,3.50
2019-03-03T14:18:07.416Z,3.45
2019-03-03T14:19:12.100Z,3.50
2019-03-03T14:20:18.631Z,3.55
2019-03-03T14:21:22.744Z,3.60
2019-03-03T14:22:27.002Z,3.61
2019-03-03T14:23:31.077Z,3.64
2019-03-03T14:24:35.267Z,3.68
2019-03-03T14:25:39.350Z,3.71
2019-03-03T14:26:43.809Z,3.68
2019-03-03T14:27:48.295Z,3.64
2019-03-03T14:28:52.642Z,3.55
2019-03-03T14:29:56.746Z,3.48
2019-03-03T14:31:00.869Z,3.50
2019-03-03T14:32:05.026Z,3.53
2019-03-03T14:33:09.244Z,3.46
2019-03-03T14:34:13.346Z,3.29
2019-03-03T14:35:17.546Z,3.20
2019-03-03T14:36:21.663Z,3.23
2019-03-03T14:37:25.755Z,3.12
2019-03-03T14:38:29.943Z,3.17
2019-03-03T14:39:34.028Z,3.21
2019-03-03T14:40:38.207Z,3.22
2019-03-03T14:41:42.391Z,3.27
2019-03-03T14:42:46.728Z,3.32
2019-03-03T14:43:57.506Z,3.33
2019-03-03T14:45:01.910Z,3.22
2019-03-03T14:46:06.258Z,3.23
2019-03-03T14:47:10.404Z,3.27
2019-03-03T14:48:14.608Z,3.28
2019-03-03T14:49:18.810Z,3.19
2019-03-03T14:50:23.068Z,3.18
2019-03-03T14:51:28.527Z,3.17
2019-03-03T14:52:31.653Z,3.18
2019-03-03T14:53:35.705Z,3.06
2019-03-03T14:54:39.852Z,3.13
2019-03-03T14:55:44.082Z,3.16
2019-03-03T14:56:48.459Z,3.23
2019-03-03T14:57:52.569Z,3.28
2019-03-03T14:58:56.940Z,3.28
2019-03-03T15:00:01.418Z,3.36
2019-03-03T15:01:06.147Z,3.29
2019-03-03T15:02:10.682Z,3.38
2019-03-03T15:03:15.200Z,3.45
2019-03-03T15:04:20.003Z,3.51
2019-03-03T15:05:24.329Z,3.55
2019-03-03T15:06:28.652Z,3.60
2019-03-03T15:07:33.188Z,3.65
2019-03-03T15:08:37.677Z,3.70
2019-03-03T15:09:42.300Z,3.73
2019-03-03T15:10:46.676Z,3.77
2019-03-03T15:11:51.509Z,3.81
2019-03-03T15:12:55.975Z,3.86
2019-03-03T15:14:00.517Z,3.84
2019-03-03T15:15:05.208Z,3.88
2019-03-03T15:16:09.817Z,3.94
2019-03-03T15:17:14.455Z,4.04
2019-03-03T15:18:18.823Z,4.06
2019-03-03T15:19:23.364Z,4.09
2019-03-03T15:20:27.705Z,4.10
2019-03-03T15:21:32.044Z,4.11
2019-03-03T15:22:36.464Z,4.11
2019-03-03T15:23:40.857Z,4.12
2019-03-03T15:24:45.115Z,4.14
2019-03-03T15:25:49.642Z,4.12
2019-03-03T15:26:54.054Z,4.13
2019-03-03T15:27:58.390Z,4.11
2019-03-03T15:29:02.653Z,4.07
2019-03-03T15:30:07.564Z,4.07
2019-03-03T15:31:12.162Z,4.09
2019-03-03T15:32:16.633Z,4.05
2019-03-03T15:33:21.015Z,3.95
2019-03-03T15:34:25.278Z,3.95
2019-03-03T15:35:29.710Z,3.93
2019-03-03T15:36:34.272Z,3.95
2019-03-03T15:37:38.898Z,3.93
2019-03-03T15:38:43.476Z,3.94
2019-03-03T15:39:47.962Z,3.92
2019-03-03T15:40:52.387Z,3.90
2019-03-03T15:41:56.692Z,3.84
2019-03-03T15:43:00.841Z,3.65
2019-03-03T15:44:05.237Z,3.55
2019-03-03T15:45:11.412Z,3.54
2019-03-03T15:46:16.028Z,3.52
2019-03-03T15:47:20.542Z,3.40
2019-03-03T15:48:24.932Z,3.38
2019-03-03T15:49:29.422Z,3.35
2019-03-03T15:50:33.829Z,3.37
2019-03-03T15:51:38.237Z,3.39
2019-03-03T15:52:42.715Z,3.40
2019-03-03T15:53:47.066Z,3.33
2019-03-03T15:54:51.417Z,3.36
2019-03-03T15:55:55.696Z,3.35
2019-03-03T15:57:00.144Z,3.28
2019-03-03T15:58:04.490Z,3.24
2019-03-03T15:59:09.047Z,3.27
2019-03-03T16:00:16.943Z,3.28
2019-03-03T16:01:21.158Z,3.31
2019-03-03T16:02:25.495Z,3.30
2019-03-03T16:03:29.964Z,3.26
2019-03-03T16:04:34.263Z,3.26
2019-03-03T16:05:38.649Z,3.31
2019-03-03T16:06:43.222Z,3.29
2019-03-03T16:07:47.769Z,3.25
2019-03-03T16:08:52.167Z,3.30
2019-03-03T16:09:56.642Z,3.32
2019-03-03T16:11:01.181Z,3.32
2019-03-03T16:12:05.635Z,3.34
2019-03-03T16:13:09.821Z,3.31
2019-03-03T16:14:13.952Z,3.24
2019-03-03T16:15:18.821Z,3.28
2019-03-03T16:16:22.960Z,3.26
2019-03-03T16:17:27.064Z,3.29
2019-03-03T16:18:31.200Z,3.22
2019-03-03T16:19:35.211Z,3.19
2019-03-03T16:20:39.334Z,3.10
2019-03-03T16:21:43.423Z,3.13
2019-03-03T16:22:47.669Z,3.13
2019-03-03T16:23:51.820Z,3.09